Time;durP1;ratioP1;P1;durP2;ratioP2;P2;SDS_P1;SDS_P2;PMS_P1;PMS_P2;Temp;Humidity;BMP_temperature;BMP_pressure;BME280_temperature;BME280_humidity;BME280_pressure;Samples;Min_cycle;Max_cycle;Signal;HPM_P1;HPM_P2
2023/06/07 00:00:22;;;;;;;4.65;3.10;;;15.90;93.70;;;;;;4890172;29;20025;-72
2023/06/07 05:01:41;;;;;;;8.32;5.63;;;14.90;99.90;;;;;;5744073;23;20280;-73
2023/06/07 05:04:07;;;;;;;8.80;6.05;;;15.00;99.90;;;;;;4881684;29;20289;-72
2023/06/07 05:06:49;;;;;;;8.27;6.00;;;15.00;99.90;;;;;;4873940;29;20028;-73
2023/06/07 05:09:15;;;;;;;8.87;6.00;;;15.00;99.90;;;;;;4891543;29;20251;-72
2023/06/07 05:11:41;;;;;;;10.68;7.13;;;15.10;99.90;;;;;;4873745;29;20037;-71
2023/06/07 05:14:08;;;;;;;9.88;6.95;;;15.20;99.90;;;;;;4872955;29;20021;-73
2023/06/07 05:16:34;;;;;;;14.35;9.50;;;15.20;99.90;;;;;;4873596;29;20032;-73
2023/06/07 05:19:03;;;;;;;13.20;9.15;;;15.30;99.90;;;;;;4882372;29;20029;-74
2023/06/07 05:21:30;;;;;;;11.68;7.65;;;15.30;99.90;;;;;;4876715;29;20051;-73
2023/06/07 05:23:56;;;;;;;10.77;7.78;;;15.30;99.90;;;;;;4908249;29;20033;-72
2023/06/07 05:26:22;;;;;;;12.80;7.55;;;15.20;99.90;;;;;;4891160;29;20075;-73
2023/06/07 05:28:48;;;;;;;10.93;6.70;;;15.30;99.90;;;;;;4891889;29;20112;-73
2023/06/07 05:31:15;;;;;;;14.10;7.93;;;15.40;99.90;;;;;;4891122;29;20306;-71
2023/06/07 05:33:41;;;;;;;11.25;7.22;;;15.50;99.90;;;;;;4891702;29;20024;-72
2023/06/07 05:36:07;;;;;;;11.05;7.50;;;15.50;99.90;;;;;;4881295;29;20063;-72
2023/06/07 05:38:35;;;;;;;11.77;7.38;;;15.60;99.90;;;;;;4873031;29;20321;-71
2023/06/07 05:41:01;;;;;;;9.10;7.05;;;15.70;99.90;;;;;;4872929;29;20035;-72
2023/06/07 05:43:27;;;;;;;9.40;6.45;;;15.70;99.90;;;;;;4872392;29;20033;-73
2023/06/07 05:45:53;;;;;;;8.40;6.80;;;15.80;99.90;;;;;;4872686;29;20028;-73
2023/06/07 05:48:19;;;;;;;9.80;6.88;;;15.90;99.90;;;;;;4888977;29;20025;-72
2023/06/07 05:50:45;;;;;;;11.95;7.93;;;16.00;99.90;;;;;;4872787;29;20036;-71
2023/06/07 05:53:12;;;;;;;11.70;7.05;;;15.90;99.90;;;;;;4888511;29;20298;-73
2023/06/07 05:55:37;;;;;;;11.35;7.13;;;16.10;99.90;;;;;;4872864;29;20043;-72
2023/06/07 05:58:03;;;;;;;8.07;6.68;;;16.20;99.90;;;;;;4889098;29;20036;-74
2023/06/07 06:00:30;;;;;;;9.45;6.68;;;16.20;99.90;;;;;;4888942;29;20092;-72
2023/06/07 06:02:56;;;;;;;9.75;6.63;;;16.30;99.90;;;;;;4905466;29;20123;-71
2023/06/07 06:05:27;;;;;;;11.40;6.85;;;16.40;99.90;;;;;;4908112;29;20024;-72
2023/06/07 06:07:53;;;;;;;8.90;6.60;;;16.40;99.90;;;;;;4908021;29;20095;-72
2023/06/07 06:10:19;;;;;;;9.07;6.90;;;16.60;99.90;;;;;;4907248;29;20036;-72
2023/06/07 06:12:45;;;;;;;12.77;6.40;;;16.70;99.90;;;;;;4906791;29;20047;-72
2023/06/07 06:15:11;;;;;;;13.60;6.47;;;16.80;99.90;;;;;;4907200;29;20091;-72
2023/06/07 06:17:37;;;;;;;8.20;6.07;;;16.90;99.90;;;;;;4891163;29;20072;-73
2023/06/07 06:20:03;;;;;;;10.45;7.25;;;17.00;99.90;;;;;;4908023;29;20033;-73
2023/06/07 06:22:28;;;;;;;10.10;5.80;;;17.10;99.90;;;;;;4906823;29;20288;-73
2023/06/07 06:24:55;;;;;;;8.27;6.43;;;17.10;99.90;;;;;;4907753;29;20100;-72
2023/06/07 06:27:20;;;;;;;9.60;5.95;;;17.00;99.90;;;;;;4907055;29;20050;-73
2023/06/07 06:29:46;;;;;;;8.55;5.28;;;17.00;99.90;;;;;;4907535;29;20036;-72
2023/06/07 06:32:12;;;;;;;10.02;5.22;;;17.20;99.90;;;;;;4906934;29;20039;-71
2023/06/07 06:34:37;;;;;;;10.35;6.15;;;17.40;99.90;;;;;;4907492;29;20028;-73
2023/06/07 06:37:05;;;;;;;8.48;5.90;;;17.60;99.90;;;;;;4892648;29;20037;-73
2023/06/07 06:39:32;;;;;;;10.83;5.87;;;17.60;99.80;;;;;;4891128;29;20025;-73
2023/06/07 06:41:57;;;;;;;8.10;5.85;;;17.80;99.70;;;;;;4892493;29;20045;-73
2023/06/07 06:44:40;;;;;;;9.55;6.15;;;17.90;99.30;;;;;;4876156;29;20025;-73
2023/06/07 06:47:06;;;;;;;13.50;5.68;;;17.80;98.90;;;;;;4892230;29;20227;-73
2023/06/07 06:49:32;;;;;;;13.50;5.85;;;17.90;98.50;;;;;;4875996;29;20060;-74
2023/06/07 06:51:57;;;;;;;8.80;5.50;;;18.20;98.20;;;;;;4892538;29;20273;-74
2023/06/07 06:54:23;;;;;;;9.27;6.20;;;18.30;98.20;;;;;;4891711;29;20021;-73
2023/06/07 06:56:49;;;;;;;8.68;5.32;;;18.30;97.90;;;;;;4892494;29;20061;-72
2023/06/07 06:59:14;;;;;;;9.05;5.30;;;18.40;97.50;;;;;;4891893;29;20033;-73
2023/06/07 07:01:48;;;;;;;9.85;5.22;;;18.60;97.20;;;;;;4892603;29;20049;-72
2023/06/07 07:04:17;;;;;;;9.68;5.65;;;18.60;96.60;;;;;;4910266;29;20056;-75
2023/06/07 07:06:43;;;;;;;7.07;4.68;;;18.60;96.40;;;;;;4912266;29;20032;-74
2023/06/07 07:09:09;;;;;;;7.55;4.65;;;18.70;96.30;;;;;;4910219;29;20100;-72
2023/06/07 07:11:35;;;;;;;7.63;4.40;;;18.80;95.90;;;;;;4911025;29;20040;-72
2023/06/07 07:14:02;;;;;;;8.27;4.43;;;18.70;96.00;;;;;;4910720;29;20028;-73
2023/06/07 07:16:30;;;;;;;9.45;4.35;;;18.90;95.60;;;;;;4910120;29;20487;-72
2023/06/07 07:18:56;;;;;;;6.10;4.07;;;19.10;95.60;;;;;;4910644;29;20321;-73
2023/06/07 07:21:21;;;;;;;6.32;3.90;;;19.10;95.10;;;;;;4909884;29;20037;-73
2023/06/07 07:23:47;;;;;;;6.10;3.88;;;19.10;95.10;;;;;;4910692;29;20361;-72
2023/06/07 07:26:13;;;;;;;5.72;4.05;;;19.30;94.60;;;;;;4910105;29;20048;-72
2023/06/07 07:28:39;;;;;;;5.10;3.58;;;19.40;94.80;;;;;;4910634;29;20039;-73
2023/06/07 07:31:04;;;;;;;7.05;3.55;;;19.50;94.40;;;;;;4910268;29;20032;-73
2023/06/07 07:33:30;;;;;;;7.45;3.20;;;19.50;94.60;;;;;;4909937;29;20320;-72
2023/06/07 07:35:56;;;;;;;6.38;3.88;;;19.60;94.50;;;;;;4910057;29;20084;-74
2023/06/07 07:38:21;;;;;;;7.22;3.25;;;19.60;94.00;;;;;;4909927;29;20079;-73
2023/06/07 07:40:47;;;;;;;4.95;2.70;;;19.80;94.00;;;;;;4910184;29;20036;-72
2023/06/07 07:43:13;;;;;;;7.93;4.03;;;19.90;93.50;;;;;;4909710;29;20044;-72
2023/06/07 07:45:38;;;;;;;4.95;3.50;;;19.90;93.20;;;;;;4910356;29;20036;-73
2023/06/07 07:48:04;;;;;;;4.47;3.13;;;19.90;93.40;;;;;;4909993;29;20031;-71
2023/06/07 07:50:31;;;;;;;4.35;3.25;;;20.00;93.40;;;;;;4908561;29;20423;-71
2023/06/07 07:52:57;;;;;;;5.70;3.47;;;19.90;93.20;;;;;;4909876;29;20263;-71
2023/06/07 07:55:23;;;;;;;5.95;3.20;;;19.90;93.20;;;;;;4909617;29;20134;-72
2023/06/07 07:57:50;;;;;;;5.05;3.20;;;19.90;93.50;;;;;;4910145;29;20070;-74
2023/06/07 08:00:17;;;;;;;5.57;3.15;;;20.20;93.00;;;;;;4909164;29;20035;-72
2023/06/07 08:02:44;;;;;;;5.35;3.25;;;20.30;92.30;;;;;;4909270;29;20059;-73
2023/06/07 08:05:10;;;;;;;3.75;2.20;;;20.50;92.50;;;;;;4908523;29;20036;-73
2023/06/07 08:07:36;;;;;;;4.30;2.40;;;20.60;91.90;;;;;;4908276;29;20039;-72
2023/06/07 08:10:01;;;;;;;4.28;2.20;;;20.70;91.50;;;;;;4909866;29;20048;-71
2023/06/07 08:12:27;;;;;;;3.05;2.08;;;20.50;91.40;;;;;;4909183;29;20033;-70
2023/06/07 08:14:53;;;;;;;4.78;2.20;;;20.70;91.20;;;;;;4909759;29;20088;-71
2023/06/07 08:17:20;;;;;;;4.15;2.17;;;20.70;91.10;;;;;;4909201;29;20060;-73
2023/06/07 08:19:46;;;;;;;4.30;1.88;;;20.90;91.30;;;;;;4909666;29;20186;-72
2023/06/07 08:22:12;;;;;;;5.00;2.28;;;21.20;90.90;;;;;;4909060;29;20101;-72
2023/06/07 08:24:38;;;;;;;2.60;1.63;;;21.40;90.00;;;;;;4909535;29;20096;-73
2023/06/07 08:27:05;;;;;;;3.03;2.42;;;21.50;90.00;;;;;;4909528;29;20067;-73
2023/06/07 08:29:31;;;;;;;3.35;2.67;;;21.40;88.40;;;;;;4892096;29;20043;-71
2023/06/07 08:31:57;;;;;;;4.35;2.10;;;21.30;88.60;;;;;;4909463;29;20032;-71
2023/06/07 08:34:27;;;;;;;4.50;2.40;;;21.40;88.70;;;;;;4908431;29;20035;-73
2023/06/07 08:36:54;;;;;;;4.35;2.30;;;21.40;88.00;;;;;;4909069;29;20108;-73
2023/06/07 08:39:20;;;;;;;4.15;2.15;;;21.40;88.30;;;;;;4908793;29;20044;-72
2023/06/07 08:41:46;;;;;;;5.22;2.30;;;21.50;86.80;;;;;;4909250;29;20391;-74
2023/06/07 08:44:12;;;;;;;4.22;2.30;;;21.60;87.30;;;;;;4909185;29;20033;-72
2023/06/07 08:46:39;;;;;;;4.10;2.10;;;21.80;86.80;;;;;;4891949;29;20024;-72
2023/06/07 08:49:05;;;;;;;4.28;2.17;;;21.90;86.20;;;;;;4908924;29;20096;-72
2023/06/07 08:51:36;;;;;;;2.65;1.58;;;22.00;85.10;;;;;;4908235;29;20032;-71
2023/06/07 08:54:03;;;;;;;2.95;1.70;;;22.10;83.40;;;;;;4908992;29;20051;-73
2023/06/07 08:56:33;;;;;;;4.45;1.92;;;22.20;81.80;;;;;;4908300;29;20032;-73
2023/06/07 08:58:59;;;;;;;3.15;1.52;;;22.30;81.90;;;;;;4908934;29;20040;-73
2023/06/07 09:01:28;;;;;;;4.03;1.95;;;22.40;81.50;;;;;;4907698;29;20036;-73
2023/06/07 09:03:55;;;;;;;3.95;1.88;;;22.40;80.30;;;;;;4908532;29;20065;-72
2023/06/07 09:06:22;;;;;;;3.22;1.55;;;22.50;80.00;;;;;;4907890;29;20137;-72
2023/06/07 09:08:48;;;;;;;2.92;1.45;;;22.60;80.30;;;;;;4908673;29;20096;-73
2023/06/07 09:11:15;;;;;;;2.78;1.60;;;22.70;78.90;;;;;;4908427;29;20028;-73
2023/06/07 09:13:41;;;;;;;3.58;1.58;;;22.90;79.30;;;;;;4908714;29;20310;-73
2023/06/07 09:16:13;;;;;;;6.65;4.22;;;22.90;78.80;;;;;;4908428;29;20051;-73
2023/06/07 09:18:56;;;;;;;3.65;1.73;;;23.00;78.00;;;;;;4907973;29;20040;-73
2023/06/07 09:21:26;;;;;;;2.58;1.60;;;23.10;76.80;;;;;;4907721;29;20036;-74
2023/06/07 09:23:54;;;;;;;3.28;1.30;;;23.10;76.00;;;;;;4908209;29;20051;-72
2023/06/07 09:26:22;;;;;;;3.67;1.13;;;23.00;76.70;;;;;;4907946;29;20060;-74
2023/06/07 09:28:49;;;;;;;2.00;1.10;;;23.20;76.10;;;;;;4908506;29;20092;-72
2023/06/07 09:31:30;;;;;;;3.63;1.90;;;23.30;76.10;;;;;;4908249;29;20035;-70
2023/06/07 09:33:56;;;;;;;6.65;2.80;;;23.50;76.70;;;;;;4908351;29;20099;-72
2023/06/07 09:36:23;;;;;;;2.25;1.40;;;24.00;76.80;;;;;;4907715;29;20044;-72
2023/06/07 09:38:48;;;;;;;5.95;2.20;;;24.00;75.50;;;;;;4908208;29;20063;-75
2023/06/07 09:41:14;;;;;;;6.97;2.00;;;24.30;75.90;;;;;;4907750;29;20125;-73
2023/06/07 09:43:50;;;;;;;5.63;1.83;;;24.60;75.10;;;;;;4907407;29;20043;-74
2023/06/07 09:46:19;;;;;;;2.53;1.42;;;24.70;74.30;;;;;;4908193;29;20033;-75
2023/06/07 09:48:46;;;;;;;2.80;1.13;;;24.70;74.00;;;;;;4908282;29;20080;-73
2023/06/07 09:51:12;;;;;;;2.30;1.30;;;24.80;73.00;;;;;;4907833;29;20055;-73
2023/06/07 09:53:54;;;;;;;3.00;1.23;;;24.70;71.90;;;;;;4907496;29;20341;-73
2023/06/07 09:56:21;;;;;;;2.25;1.02;;;24.50;71.30;;;;;;4907241;29;20225;-75
2023/06/07 09:59:10;;;;;;;1.87;1.20;;;24.20;73.00;;;;;;4908128;29;20080;-73
2023/06/07 10:01:45;;;;;;;2.63;1.58;;;24.00;73.60;;;;;;4906638;29;20044;-74
2023/06/07 10:04:12;;;;;;;2.40;1.10;;;24.40;73.50;;;;;;4891384;29;20037;-74
2023/06/07 10:06:44;;;;;;;3.05;1.15;;;24.70;72.30;;;;;;4907251;29;20079;-74
2023/06/07 10:09:11;;;;;;;2.83;1.20;;;24.90;72.10;;;;;;4907601;29;20037;-71
2023/06/07 10:11:38;;;;;;;2.13;0.90;;;25.20;70.40;;;;;;4907064;29;20052;-73
2023/06/07 10:14:10;;;;;;;2.47;1.00;;;25.30;70.20;;;;;;4907250;29;20037;-73
2023/06/07 10:16:36;;;;;;;1.98;0.82;;;25.50;70.10;;;;;;4906927;29;20052;-73
2023/06/07 10:19:37;;;;;;;5.82;4.28;;;25.50;69.60;;;;;;4907808;29;20028;-74
2023/06/07 10:22:08;;;;;;;4.82;1.00;;;25.90;70.10;;;;;;4907615;29;20402;-74
2023/06/07 10:24:46;;;;;;;2.20;1.17;;;26.00;69.00;;;;;;4907288;29;20037;-74
2023/06/07 10:27:15;;;;;;;1.95;0.98;;;25.90;68.60;;;;;;4907772;29;20040;-73
2023/06/07 10:29:57;;;;;;;1.85;1.00;;;26.00;67.80;;;;;;4907119;29;20025;-75
2023/06/07 10:32:34;;;;;;;1.70;1.00;;;26.10;67.40;;;;;;4907133;29;20043;-75
2023/06/07 10:35:01;;;;;;;2.70;1.20;;;26.20;67.90;;;;;;4907352;29;20036;-76
2023/06/07 10:37:33;;;;;;;1.98;1.02;;;25.90;67.20;;;;;;4906847;29;20036;-74
2023/06/07 10:40:05;;;;;;;2.75;1.10;;;26.00;67.00;;;;;;4907781;29;20321;-72
2023/06/07 10:42:33;;;;;;;1.55;1.02;;;26.30;67.00;;;;;;4906770;29;20088;-73
2023/06/07 10:44:59;;;;;;;3.07;1.00;;;26.60;65.70;;;;;;4890948;29;20044;-72
2023/06/07 10:47:29;;;;;;;1.55;0.70;;;26.80;65.50;;;;;;4906803;29;20048;-72
2023/06/07 10:49:55;;;;;;;2.28;0.90;;;26.60;65.70;;;;;;4907646;29;20039;-71
2023/06/07 10:52:23;;;;;;;1.63;0.95;;;26.20;66.00;;;;;;4907137;29;20048;-74
2023/06/07 10:54:49;;;;;;;3.10;1.20;;;25.80;67.10;;;;;;4907296;29;20096;-74
2023/06/07 10:57:30;;;;;;;1.70;0.82;;;26.20;66.80;;;;;;4907170;29;20021;-74
2023/06/07 11:00:29;;;;;;;2.80;0.98;;;26.60;65.90;;;;;;4907238;29;20043;-74
2023/06/07 11:03:12;;;;;;;1.40;1.20;;;27.00;65.10;;;;;;4906800;29;20219;-73
2023/06/07 11:05:53;;;;;;;3.47;0.90;;;26.90;64.60;;;;;;4906885;29;20044;-75
2023/06/07 11:08:26;;;;;;;5.78;1.33;;;26.90;64.50;;;;;;4907328;29;20107;-75
2023/06/07 11:10:58;;;;;;;2.22;1.00;;;26.80;64.40;;;;;;4907369;29;20136;-74
2023/06/07 11:13:26;;;;;;;2.25;1.30;;;26.60;63.90;;;;;;4906348;29;20366;-73
2023/06/07 11:15:51;;;;;;;4.32;1.58;;;26.70;63.50;;;;;;4907059;29;20036;-74
2023/06/07 11:18:17;;;;;;;3.40;1.17;;;26.70;63.90;;;;;;4906949;29;20039;-74
2023/06/07 11:20:48;;;;;;;3.03;1.25;;;26.80;63.50;;;;;;4906618;29;20044;-74
2023/06/07 11:23:30;;;;;;;1.90;1.10;;;26.70;64.10;;;;;;4907354;29;20044;-75
2023/06/07 11:26:11;;;;;;;2.20;1.23;;;26.70;65.20;;;;;;4909672;29;20081;-73
2023/06/07 11:28:38;;;;;;;3.10;1.10;;;26.60;65.50;;;;;;4909752;29;20024;-73
2023/06/07 11:31:08;;;;;;;3.03;0.95;;;26.40;66.00;;;;;;4910484;29;20310;-74
2023/06/07 11:33:35;;;;;;;2.85;1.25;;;26.20;65.40;;;;;;4909651;29;20219;-74
2023/06/07 11:36:03;;;;;;;6.55;1.33;;;26.30;65.90;;;;;;4910583;29;20322;-75
2023/06/07 11:38:29;;;;;;;11.50;8.63;;;26.60;66.00;;;;;;4909708;29;20040;-72
2023/06/07 11:40:56;;;;;;;2.25;1.10;;;27.50;64.10;;;;;;4910499;29;20043;-74
2023/06/07 11:43:27;;;;;;;2.35;1.10;;;28.70;62.00;;;;;;4910456;29;20353;-74
2023/06/07 11:45:57;;;;;;;2.85;1.77;;;29.90;60.70;;;;;;4910137;29;20099;-72
2023/06/07 11:48:30;;;;;;;1.75;0.82;;;30.40;59.50;;;;;;4910039;29;20213;-75
2023/06/07 11:50:56;;;;;;;4.20;1.27;;;31.60;58.50;;;;;;4910212;29;20025;-73
2023/06/07 11:53:23;;;;;;;1.50;0.85;;;32.70;56.00;;;;;;4910197;29;20032;-73
2023/06/07 11:55:49;;;;;;;4.05;2.72;;;33.50;54.60;;;;;;4909582;29;20032;-74
2023/06/07 11:58:15;;;;;;;3.05;1.35;;;34.10;53.30;;;;;;4909964;29;20073;-73
2023/06/07 12:00:43;;;;;;;3.30;0.80;;;35.10;51.90;;;;;;4909709;29;20251;-73
2023/06/07 12:03:13;;;;;;;7.18;5.78;;;35.60;50.70;;;;;;4909325;29;20063;-74
2023/06/07 12:05:39;;;;;;;3.15;2.05;;;36.10;51.20;;;;;;4909398;29;20091;-73
2023/06/07 12:08:07;;;;;;;1.55;0.90;;;36.70;49.70;;;;;;4893201;29;20147;-72
2023/06/07 12:10:36;;;;;;;2.38;0.80;;;36.30;48.60;;;;;;4909396;29;20044;-72
2023/06/07 12:13:12;;;;;;;2.78;0.90;;;37.00;48.90;;;;;;4909640;29;20322;-73
2023/06/07 12:15:58;;;;;;;2.00;0.80;;;38.20;48.10;;;;;;4909194;29;20087;-73
2023/06/07 12:18:25;;;;;;;1.48;0.60;;;38.50;48.00;;;;;;4911244;29;20033;-73
2023/06/07 12:21:07;;;;;;;3.22;0.80;;;38.00;47.50;;;;;;4910583;29;20037;-75
2023/06/07 12:23:37;;;;;;;1.98;1.00;;;36.40;49.40;;;;;;4909374;29;20041;-73
2023/06/07 12:26:11;;;;;;;4.13;1.25;;;36.70;49.00;;;;;;4909506;29;20028;-73
2023/06/07 12:28:39;;;;;;;3.50;1.00;;;37.50;48.50;;;;;;4908936;29;20200;-73
2023/06/07 12:31:14;;;;;;;2.22;0.90;;;38.20;48.10;;;;;;4909750;29;20024;-72
2023/06/07 12:34:01;;;;;;;2.50;0.80;;;39.10;47.10;;;;;;4909102;29;20036;-73
2023/06/07 12:36:28;;;;;;;;;;;39.70;47.00;;;;;;4909149;29;20100;-73
2023/06/07 12:38:57;;;;;;;3.92;0.77;;;40.00;45.90;;;;;;4892493;29;19982;-73
2023/06/07 12:41:27;;;;;;;2.42;0.50;;;40.60;46.10;;;;;;4909475;29;20298;-75
2023/06/07 12:43:55;;;;;;;2.10;0.80;;;40.40;45.50;;;;;;4909285;29;20122;-73
2023/06/07 12:46:21;;;;;;;2.38;0.75;;;41.20;45.40;;;;;;4909748;29;20306;-73
2023/06/07 12:48:47;;;;;;;2.13;0.70;;;41.40;44.60;;;;;;4909189;29;20063;-71
2023/06/07 12:51:13;;;;;;;1.40;0.65;;;41.50;43.80;;;;;;4909619;29;20040;-73
2023/06/07 12:53:39;;;;;;;1.40;0.60;;;42.00;43.60;;;;;;4908614;29;20059;-73
2023/06/07 12:56:05;;;;;;;1.67;0.70;;;42.20;42.70;;;;;;4909231;29;20029;-73
2023/06/07 12:58:30;;;;;;;1.00;0.50;;;42.50;42.80;;;;;;4908587;29;20093;-72
2023/06/07 13:00:56;;;;;;;1.23;0.70;;;42.40;42.40;;;;;;4908837;29;20036;-73
2023/06/07 13:03:22;;;;;;;1.17;0.60;;;43.10;42.20;;;;;;4909039;29;20048;-75
2023/06/07 13:05:48;;;;;;;1.77;0.80;;;43.10;42.30;;;;;;4908218;29;20033;-73
2023/06/07 13:08:14;;;;;;;1.58;0.55;;;42.90;41.60;;;;;;4908923;29;20051;-74
2023/06/07 13:10:39;;;;;;;1.43;0.50;;;42.50;41.20;;;;;;4907976;29;20032;-72
2023/06/07 13:13:08;;;;;;;1.47;0.67;;;42.50;41.60;;;;;;4908437;29;20084;-73
2023/06/07 13:15:35;;;;;;;1.80;0.80;;;42.40;41.80;;;;;;4907995;29;20041;-72
2023/06/07 13:18:01;;;;;;;1.10;0.40;;;43.10;41.60;;;;;;4909144;29;20024;-74
2023/06/07 13:20:27;;;;;;;1.15;0.65;;;42.70;41.30;;;;;;4909165;29;20068;-73
2023/06/07 13:22:52;;;;;;;2.28;0.63;;;43.30;41.10;;;;;;4908678;29;20036;-74
2023/06/07 13:25:18;;;;;;;3.08;0.60;;;43.00;40.90;;;;;;4908957;29;20032;-72
2023/06/07 13:27:44;;;;;;;2.30;0.57;;;42.80;41.00;;;;;;4908045;29;20037;-73
2023/06/07 13:30:11;;;;;;;1.30;0.52;;;43.30;41.20;;;;;;4908569;29;20028;-72
2023/06/07 13:32:37;;;;;;;2.55;0.77;;;43.70;40.40;;;;;;4907840;29;20116;-74
2023/06/07 13:35:02;;;;;;;3.63;1.30;;;43.60;40.90;;;;;;4908252;29;20040;-73
2023/06/07 13:37:28;;;;;;;2.10;0.93;;;43.50;40.70;;;;;;4908140;29;20032;-72
2023/06/07 13:39:55;;;;;;;1.83;0.75;;;42.20;41.00;;;;;;4907866;29;20043;-74
2023/06/07 13:42:21;;;;;;;2.10;0.65;;;42.00;41.90;;;;;;4908646;29;20101;-74
2023/06/07 13:44:50;;;;;;;1.92;0.80;;;42.40;41.70;;;;;;4908396;29;20036;-72
2023/06/07 13:47:17;;;;;;;0.90;0.60;;;42.20;41.30;;;;;;4908663;29;20036;-72
2023/06/07 13:49:42;;;;;;;1.27;0.70;;;40.90;42.00;;;;;;4907665;29;20024;-74
2023/06/07 13:52:09;;;;;;;1.55;0.65;;;40.90;42.60;;;;;;4908348;29;20037;-73
2023/06/07 13:54:35;;;;;;;3.10;1.47;;;42.60;42.60;;;;;;4907287;29;20099;-74
2023/06/07 13:57:01;;;;;;;3.90;3.40;;;43.00;41.00;;;;;;4908107;29;20032;-76
2023/06/07 13:59:30;;;;;;;1.67;0.77;;;43.80;40.90;;;;;;4907904;29;20060;-75
2023/06/07 14:01:56;;;;;;;1.40;0.80;;;43.80;40.70;;;;;;4906940;29;20049;-74
2023/06/07 14:04:23;;;;;;;2.75;0.90;;;44.00;40.20;;;;;;4907939;29;20063;-73
2023/06/07 14:06:50;;;;;;;2.88;0.60;;;44.60;39.90;;;;;;4907473;29;20044;-74
2023/06/07 14:09:17;;;;;;;1.48;0.75;;;44.10;40.40;;;;;;4907964;29;20140;-75
2023/06/07 14:11:44;;;;;;;1.83;0.63;;;44.40;39.90;;;;;;4907019;29;20084;-74
2023/06/07 14:14:10;;;;;;;1.17;0.75;;;44.10;39.50;;;;;;4907490;29;20455;-74
2023/06/07 14:16:35;;;;;;;1.70;0.80;;;43.70;39.90;;;;;;4907043;29;20041;-74
2023/06/07 14:19:01;;;;;;;1.05;0.50;;;43.50;40.00;;;;;;4907657;29;20084;-74
2023/06/07 14:21:27;;;;;;;2.13;0.65;;;44.60;39.50;;;;;;4908070;29;20036;-72
2023/06/07 14:23:53;;;;;;;3.28;0.90;;;44.60;39.30;;;;;;4907102;29;20274;-74
2023/06/07 14:26:19;;;;;;;1.40;0.80;;;44.80;38.80;;;;;;4907779;29;20032;-70
2023/06/07 14:28:45;;;;;;;;;;;44.40;38.40;;;;;;4907590;29;20092;-73
2023/06/07 14:31:11;;;;;;;3.00;1.37;;;42.70;39.30;;;;;;4907661;29;19914;-75
2023/06/07 14:33:37;;;;;;;1.73;1.13;;;42.30;39.70;;;;;;4906795;29;20024;-74
2023/06/07 14:36:04;;;;;;;3.13;0.90;;;43.30;40.00;;;;;;4907658;29;20024;-71
2023/06/07 14:38:30;;;;;;;6.07;1.15;;;44.30;39.60;;;;;;4907608;29;20021;-72
2023/06/07 14:40:56;;;;;;;1.40;0.73;;;44.80;39.60;;;;;;4906677;29;20059;-73
2023/06/07 14:43:22;;;;;;;2.58;0.80;;;44.40;39.20;;;;;;4907517;29;20306;-72
2023/06/07 14:45:47;;;;;;;2.77;0.70;;;44.90;39.50;;;;;;4906980;29;20069;-72
2023/06/07 14:48:13;;;;;;;2.33;0.70;;;44.80;39.30;;;;;;4907499;29;20058;-72
2023/06/07 14:50:39;;;;;;;1.65;0.60;;;44.80;39.70;;;;;;4907119;29;20024;-71
2023/06/07 14:53:05;;;;;;;2.03;1.00;;;44.80;38.90;;;;;;4907607;29;20096;-71
2023/06/07 14:55:31;;;;;;;2.08;0.95;;;44.70;39.20;;;;;;4907290;29;20028;-71
2023/06/07 14:58:00;;;;;;;2.63;0.90;;;44.20;39.90;;;;;;4907166;29;20058;-73
2023/06/07 15:00:26;;;;;;;2.40;0.70;;;45.00;39.70;;;;;;4909282;29;20048;-73
2023/06/07 15:02:52;;;;;;;2.72;0.90;;;45.40;38.70;;;;;;4909870;29;20096;-73
2023/06/07 15:05:19;;;;;;;1.42;0.73;;;43.60;38.80;;;;;;4911316;29;20052;-72
2023/06/07 15:07:45;;;;;;;1.42;0.63;;;44.50;39.70;;;;;;4910528;29;20087;-72
2023/06/07 15:10:13;;;;;;;3.25;1.00;;;46.30;38.80;;;;;;4910763;29;20330;-72
2023/06/07 15:12:39;;;;;;;3.30;1.90;;;46.50;38.40;;;;;;4910311;29;20361;-73
2023/06/07 15:15:06;;;;;;;1.77;0.90;;;45.30;38.80;;;;;;4911011;29;20306;-74
2023/06/07 15:17:33;;;;;;;1.48;0.70;;;45.10;39.00;;;;;;4910504;29;20060;-73
2023/06/07 15:19:59;;;;;;;2.83;0.85;;;45.60;38.80;;;;;;4910507;29;20044;-73
2023/06/07 15:22:25;;;;;;;2.25;0.70;;;45.40;39.00;;;;;;4910588;29;20039;-73
2023/06/07 15:24:51;;;;;;;1.77;0.77;;;46.00;38.60;;;;;;4910332;29;20256;-73
2023/06/07 15:27:16;;;;;;;3.22;0.82;;;46.60;38.60;;;;;;4910746;29;20076;-73
2023/06/07 15:29:42;;;;;;;2.70;1.00;;;46.90;37.50;;;;;;4893627;29;20025;-73
2023/06/07 15:32:08;;;;;;;1.63;0.90;;;46.70;38.00;;;;;;4910774;29;20040;-73
2023/06/07 15:34:34;;;;;;;1.60;0.80;;;46.70;38.20;;;;;;4904143;29;20055;-73
2023/06/07 15:36:59;;;;;;;1.70;0.80;;;46.00;37.80;;;;;;4909836;29;20044;-73
2023/06/07 15:39:25;;;;;;;1.97;1.07;;;45.90;37.80;;;;;;4910584;29;20084;-73
2023/06/07 15:41:52;;;;;;;1.80;0.93;;;45.80;38.30;;;;;;4909738;29;20040;-73
2023/06/07 15:44:18;;;;;;;2.63;0.80;;;45.80;38.20;;;;;;4910419;29;20033;-71
2023/06/07 15:46:46;;;;;;;1.50;0.90;;;45.10;38.40;;;;;;4909853;29;20032;-73
2023/06/07 15:49:12;;;;;;;3.35;0.98;;;45.50;38.00;;;;;;4910308;29;20028;-73
2023/06/07 15:51:38;;;;;;;2.10;0.90;;;45.10;37.90;;;;;;4910316;29;20044;-73
2023/06/07 15:54:04;;;;;;;2.03;0.90;;;44.80;38.40;;;;;;4909859;29;20032;-74
2023/06/07 15:56:29;;;;;;;4.38;2.83;;;44.50;38.10;;;;;;4910370;29;20314;-73
2023/06/07 15:58:55;;;;;;;2.50;1.42;;;44.40;38.10;;;;;;4909386;29;20059;-74
2023/06/07 16:01:22;;;;;;;1.92;1.00;;;45.10;38.40;;;;;;4909704;29;20032;-73
2023/06/07 16:03:47;;;;;;;;;;;46.00;37.80;;;;;;4909932;29;20204;-73
2023/06/07 16:06:14;;;;;;;1.08;0.77;;;45.50;37.90;;;;;;4910033;29;19982;-74
2023/06/07 16:08:40;;;;;;;1.90;0.98;;;45.80;37.60;;;;;;4909685;29;20043;-73
2023/06/07 16:11:05;;;;;;;1.40;0.73;;;44.70;37.90;;;;;;4908744;29;20032;-75
2023/06/07 16:13:31;;;;;;;2.83;1.17;;;44.50;38.20;;;;;;4909972;29;20203;-72
2023/06/07 16:15:57;;;;;;;2.15;1.00;;;45.30;38.70;;;;;;4892732;29;20036;-74
2023/06/07 16:18:23;;;;;;;1.60;0.93;;;45.30;38.00;;;;;;4909883;29;20038;-73
2023/06/07 16:20:48;;;;;;;2.28;1.35;;;44.90;38.00;;;;;;4892582;29;20040;-72
2023/06/07 16:23:14;;;;;;;2.03;1.42;;;44.90;37.60;;;;;;4909673;29;20043;-75
2023/06/07 16:25:40;;;;;;;2.72;1.08;;;44.60;38.50;;;;;;4909726;29;20210;-74
2023/06/07 16:28:06;;;;;;;1.60;1.00;;;44.60;37.80;;;;;;4909107;29;20041;-74
2023/06/07 16:30:32;;;;;;;1.45;0.90;;;45.00;38.20;;;;;;4909664;29;20059;-73
2023/06/07 16:32:58;;;;;;;3.05;1.00;;;44.60;37.90;;;;;;4908684;29;20067;-74
2023/06/07 16:35:23;;;;;;;3.03;1.55;;;44.00;38.40;;;;;;4909661;29;20037;-73
2023/06/07 16:37:49;;;;;;;1.77;0.95;;;43.80;38.20;;;;;;4908657;29;20114;-74
2023/06/07 16:40:15;;;;;;;1.38;0.90;;;43.90;38.20;;;;;;4892780;29;20039;-73
2023/06/07 16:42:42;;;;;;;2.05;0.90;;;44.10;38.10;;;;;;4909071;29;20036;-73
2023/06/07 16:45:11;;;;;;;2.10;1.00;;;44.20;38.00;;;;;;4909465;29;20027;-73
2023/06/07 16:47:37;;;;;;;2.50;1.10;;;44.00;38.00;;;;;;4909433;29;20032;-73
2023/06/07 16:50:03;;;;;;;1.77;1.10;;;44.50;38.20;;;;;;4908786;29;20323;-74
2023/06/07 16:52:29;;;;;;;1.60;1.10;;;44.00;37.60;;;;;;4908957;29;20041;-72
2023/06/07 16:54:55;;;;;;;2.25;1.10;;;43.30;37.90;;;;;;4908365;29;20048;-72
2023/06/07 16:57:23;;;;;;;1.60;1.00;;;42.90;38.40;;;;;;4908929;29;20041;-74
2023/06/07 16:59:49;;;;;;;2.00;1.10;;;42.50;39.20;;;;;;4908334;29;20251;-72
2023/06/07 17:02:14;;;;;;;2.72;1.08;;;42.30;38.60;;;;;;4908441;29;20044;-73
2023/06/07 17:04:40;;;;;;;3.00;0.98;;;42.50;38.70;;;;;;4908743;29;20043;-74
2023/06/07 17:07:06;;;;;;;2.10;1.45;;;42.20;38.30;;;;;;4908528;29;20028;-73
2023/06/07 17:09:32;;;;;;;2.78;1.63;;;42.70;38.70;;;;;;4909583;29;20032;-73
2023/06/07 17:11:58;;;;;;;2.63;1.85;;;42.20;38.30;;;;;;4908323;29;20355;-74
2023/06/07 17:14:23;;;;;;;2.03;1.67;;;42.20;38.40;;;;;;4891924;29;20028;-73
2023/06/07 17:16:49;;;;;;;2.35;1.77;;;42.20;38.60;;;;;;4907970;29;20044;-72
2023/06/07 17:19:15;;;;;;;2.83;1.10;;;41.80;38.80;;;;;;4908520;29;20043;-77
2023/06/07 17:21:41;;;;;;;2.47;1.00;;;41.80;38.40;;;;;;4908695;29;20029;-73
2023/06/07 17:24:07;;;;;;;2.15;1.40;;;42.00;38.50;;;;;;4907869;29;20255;-72
2023/06/07 17:26:32;;;;;;;1.88;1.20;;;41.50;38.80;;;;;;4892017;29;20389;-73
2023/06/07 17:28:59;;;;;;;2.60;1.05;;;41.20;38.70;;;;;;4907782;29;20024;-72
2023/06/07 17:31:25;;;;;;;2.25;1.10;;;41.20;38.70;;;;;;4908529;29;20044;-72
2023/06/07 17:33:51;;;;;;;2.25;1.30;;;40.80;38.60;;;;;;4906562;29;20125;-73
2023/06/07 17:36:17;;;;;;;2.05;1.35;;;40.70;38.30;;;;;;4908165;29;20374;-72
2023/06/07 17:38:43;;;;;;;2.72;1.30;;;40.70;38.60;;;;;;4908437;29;20052;-72
2023/06/07 17:41:10;;;;;;;2.20;1.35;;;40.30;38.40;;;;;;4907807;29;20039;-75
2023/06/07 17:43:36;;;;;;;2.00;1.20;;;40.20;38.50;;;;;;4908142;29;20063;-74
2023/06/07 17:46:01;;;;;;;4.13;1.45;;;40.00;39.10;;;;;;4907650;29;20037;-72
2023/06/07 17:48:27;;;;;;;2.92;1.10;;;40.30;38.70;;;;;;4908358;29;20087;-73